Time;durP1;ratioP1;P1;durP2;ratioP2;P2;SDS_P1;SDS_P2;PMS_P1;PMS_P2;Temp;Humidity;BMP_temperature;BMP_pressure;BME280_temperature;BME280_humidity;BME280_pressure;Samples;Min_cycle;Max_cycle;Signal;HPM_P1;HPM_P2
2023/10/27 00:04:12;;;;;;;31.45;15.48;;;;;;;13.57;100.00;99825.53;10450409;28;20033;-64
2023/10/27 00:09:13;;;;;;;21.90;13.73;;;;;;;13.26;100.00;99757.50;10451750;28;20037;-64
2023/10/27 00:14:13;;;;;;;22.38;14.52;;;;;;;13.61;100.00;99794.75;10450445;28;20504;-64
2023/10/27 00:19:14;;;;;;;36.00;15.18;;;;;;;13.63;100.00;99827.41;10451245;28;20041;-63
2023/10/27 00:24:15;;;;;;;31.02;14.77;;;;;;;13.69;100.00;99882.66;10449489;28;20128;-64
2023/10/27 00:29:16;;;;;;;26.83;15.13;;;;;;;13.28;100.00;99810.63;10450317;28;20070;-64
2023/10/27 00:34:17;;;;;;;24.13;13.20;;;;;;;13.65;100.00;99879.56;10450721;28;20057;-64
2023/10/27 00:39:18;;;;;;;27.13;13.63;;;;;;;13.65;100.00;99860.88;10450738;28;20411;-65
2023/10/27 00:44:18;;;;;;;24.13;11.60;;;;;;;13.61;100.00;99858.78;10450085;28;20492;-64
2023/10/27 00:49:20;;;;;;;24.13;13.30;;;;;;;13.47;100.00;99856.09;10449254;28;20036;-64
2023/10/27 00:54:21;;;;;;;29.17;12.75;;;;;;;13.41;100.00;99842.72;10447652;28;20041;-64
2023/10/27 00:59:22;;;;;;;28.48;13.50;;;;;;;13.50;100.00;99854.06;10449426;28;20041;-64
2023/10/27 01:04:24;;;;;;;28.25;13.90;;;;;;;13.53;100.00;99856.31;10449051;28;20097;-63
2023/10/27 01:09:25;;;;;;;29.58;13.38;;;;;;;13.51;100.00;99858.34;10449202;28;20078;-63
2023/10/27 01:14:27;;;;;;;30.92;13.77;;;;;;;13.48;100.00;99849.72;10447910;28;20481;-63
2023/10/27 01:19:27;;;;;;;23.42;13.68;;;;;;;13.31;100.00;99823.56;10447573;28;20041;-64
2023/10/27 01:24:28;;;;;;;25.80;13.48;;;;;;;13.57;100.00;99849.56;10449716;28;20037;-64
2023/10/27 01:29:30;;;;;;;21.45;13.00;;;;;;;13.60;100.00;99859.84;10447352;28;20135;-64
2023/10/27 01:34:31;;;;;;;22.92;12.95;;;;;;;13.31;100.00;99818.25;10446516;28;20064;-63
2023/10/27 01:39:32;;;;;;;20.92;12.77;;;;;;;13.40;100.00;99846.41;10447285;28;20047;-63
2023/10/27 01:44:32;;;;;;;21.85;11.93;;;;;;;13.40;100.00;99841.91;10448632;28;20044;-65
2023/10/27 01:49:33;;;;;;;25.20;12.57;;;;;;;13.50;100.00;99843.38;10448120;28;20041;-63
2023/10/27 01:54:34;;;;;;;28.73;13.65;;;;;;;13.38;100.00;99811.09;10447322;28;20037;-63
2023/10/27 01:59:35;;;;;;;29.20;13.20;;;;;;;13.50;100.00;99811.38;10447359;28;20037;-63
2023/10/27 02:04:36;;;;;;;19.58;12.93;;;;;;;13.43;100.00;99780.16;10446501;28;20037;-64
2023/10/27 02:09:39;;;;;;;27.00;13.88;;;;;;;13.31;100.00;99731.06;10447208;28;20044;-64
2023/10/27 02:14:40;;;;;;;30.35;13.60;;;;;;;13.19;100.00;99733.44;10431250;28;20045;-63
2023/10/27 02:19:40;;;;;;;22.30;12.90;;;;;;;13.38;100.00;99769.25;10447906;28;20515;-63
2023/10/27 02:24:42;;;;;;;22.75;14.55;;;;;;;13.37;100.00;99753.41;10445861;28;20377;-64
2023/10/27 02:29:43;;;;;;;35.03;16.00;;;;;;;13.40;100.00;99745.00;10446201;28;20044;-63
2023/10/27 02:34:44;;;;;;;26.25;14.93;;;;;;;13.25;100.00;99742.50;10447023;28;20054;-63
2023/10/27 02:39:45;;;;;;;27.13;14.40;;;;;;;13.43;100.00;99768.63;10446952;28;20045;-64
2023/10/27 02:44:46;;;;;;;37.47;15.10;;;;;;;13.39;100.00;99764.72;10449167;28;20041;-63
2023/10/27 02:49:46;;;;;;;31.27;14.18;;;;;;;13.47;100.00;99759.22;10454000;28;20045;-63
2023/10/27 02:54:47;;;;;;;40.75;14.95;;;;;;;13.42;100.00;99740.31;10452991;28;20064;-64
2023/10/27 02:59:48;;;;;;;32.42;14.85;;;;;;;13.13;100.00;99722.75;10447885;28;20078;-65
2023/10/27 03:04:51;;;;;;;28.55;13.88;;;;;;;13.21;100.00;99733.22;10447306;28;20045;-64
2023/10/27 03:09:52;;;;;;;50.90;12.38;;;;;;;13.26;100.00;99751.34;10446974;28;20079;-64
2023/10/27 03:14:53;;;;;;;28.13;11.65;;;;;;;13.23;100.00;99734.69;10449700;28;20156;-63
2023/10/27 03:19:54;;;;;;;44.53;11.32;;;;;;;13.14;100.00;99714.56;10449916;28;20442;-63
2023/10/27 03:24:55;;;;;;;37.13;11.65;;;;;;;13.01;100.00;99706.50;10451810;28;20461;-64
2023/10/27 03:29:56;;;;;;;30.52;10.65;;;;;;;13.08;100.00;99712.69;10451888;28;20106;-64
2023/10/27 03:34:57;;;;;;;20.20;10.82;;;;;;;13.08;100.00;99728.69;10451909;28;20149;-61
2023/10/27 03:39:58;;;;;;;21.70;11.95;;;;;;;13.10;100.00;99748.00;10451676;28;20043;-61
2023/10/27 03:44:59;;;;;;;21.05;12.35;;;;;;;13.15;100.00;99756.19;10450715;28;20075;-61
2023/10/27 03:50:00;;;;;;;31.42;13.45;;;;;;;13.14;100.00;99748.41;10452445;28;20129;-61
2023/10/27 03:55:02;;;;;;;32.22;12.18;;;;;;;13.10;100.00;99736.47;10450585;28;20129;-62
2023/10/27 04:00:04;;;;;;;32.13;14.38;;;;;;;13.16;100.00;99712.50;10451199;28;20040;-62
2023/10/27 04:05:05;;;;;;;28.63;13.43;;;;;;;13.00;100.00;99678.19;10450576;28;20113;-61
2023/10/27 04:10:06;;;;;;;36.28;20.02;;;;;;;13.45;100.00;99699.88;10451089;28;20046;-61
2023/10/27 04:15:08;;;;;;;42.72;20.63;;;;;;;13.67;100.00;99728.06;10450775;28;20476;-62
2023/10/27 04:20:09;;;;;;;39.78;19.85;;;;;;;13.76;100.00;99736.69;10450794;28;20039;-62
2023/10/27 04:25:10;;;;;;;35.80;18.02;;;;;;;13.89;100.00;99735.88;10451092;28;20048;-62
2023/10/27 04:30:13;;;;;;;44.03;16.88;;;;;;;14.03;100.00;99745.56;10450388;28;20037;-62
2023/10/27 04:35:14;;;;;;;32.03;17.20;;;;;;;14.12;100.00;99736.31;10442012;28;20045;-61
2023/10/27 04:40:15;;;;;;;33.13;15.73;;;;;;;14.16;100.00;99732.19;10449507;28;20052;-61
2023/10/27 04:45:16;;;;;;;34.40;16.73;;;;;;;14.13;100.00;99694.38;10445595;28;20432;-62
2023/10/27 04:50:20;;;;;;;35.35;15.38;;;;;;;14.55;100.00;99719.81;10447699;28;20045;-62
2023/10/27 04:55:20;;;;;;;41.03;16.50;;;;;;;14.81;100.00;99699.41;10448924;28;20500;-62
2023/10/27 05:00:21;;;;;;;51.80;19.13;;;;;;;14.99;100.00;99709.41;10449687;28;20037;-64
2023/10/27 05:05:22;;;;;;;33.55;16.75;;;;;;;15.06;100.00;99719.03;10449008;28;20037;-62
2023/10/27 05:10:23;;;;;;;32.55;16.90;;;;;;;15.19;100.00;99757.47;10447928;28;20408;-62
2023/10/27 05:15:23;;;;;;;33.17;17.10;;;;;;;15.23;100.00;99756.03;10449078;28;20041;-62
2023/10/27 05:20:24;;;;;;;27.98;16.38;;;;;;;15.33;100.00;99772.44;10448913;28;20528;-62
2023/10/27 05:25:25;;;;;;;37.75;16.10;;;;;;;15.57;100.00;99767.38;10448351;28;20082;-62
2023/10/27 05:30:25;;;;;;;30.08;15.30;;;;;;;16.04;100.00;99759.91;10448654;28;20051;-62
2023/10/27 05:35:26;;;;;;;29.58;15.00;;;;;;;16.48;98.06;99739.28;10448770;28;20531;-62
2023/10/27 05:40:31;;;;;;;26.55;14.75;;;;;;;16.78;95.95;99729.53;10447881;28;20072;-62
2023/10/27 05:45:33;;;;;;;28.42;15.52;;;;;;;17.13;94.45;99728.09;10447818;28;20049;-62
2023/10/27 05:50:34;;;;;;;32.80;14.90;;;;;;;17.49;92.93;99735.25;10448056;28;20438;-62
2023/10/27 05:55:35;;;;;;;30.48;15.02;;;;;;;17.58;90.93;99709.69;10447453;28;20048;-62
2023/10/27 06:00:36;;;;;;;31.42;14.65;;;;;;;17.73;89.66;99695.84;10447816;28;20052;-62
2023/10/27 06:05:37;;;;;;;28.45;14.00;;;;;;;17.85;87.73;99672.53;10447869;28;20085;-63
2023/10/27 06:10:38;;;;;;;27.65;14.38;;;;;;;18.04;86.35;99616.81;10447853;28;20533;-62
2023/10/27 06:15:39;;;;;;;30.38;14.05;;;;;;;19.00;84.92;99708.72;10447887;28;20411;-62
2023/10/27 06:20:40;;;;;;;28.80;14.52;;;;;;;19.44;82.65;99714.38;10450137;28;20052;-62
2023/10/27 06:25:41;;;;;;;35.75;14.65;;;;;;;19.47;80.47;99657.31;10453943;28;20048;-63
2023/10/27 06:30:42;;;;;;;30.67;14.82;;;;;;;19.92;78.96;99683.44;10454165;28;20484;-62
2023/10/27 06:35:43;;;;;;;28.60;14.45;;;;;;;20.24;77.64;99674.75;10454273;28;20057;-62
2023/10/27 06:40:43;;;;;;;41.65;15.43;;;;;;;20.85;76.28;99663.97;10453408;28;20085;-62
2023/10/27 06:45:44;;;;;;;32.92;14.30;;;;;;;20.83;74.89;99639.13;10454006;28;20158;-63
2023/10/27 06:50:45;;;;;;;23.75;12.85;;;;;;;21.10;72.68;99671.56;10454108;28;20140;-62
2023/10/27 06:55:46;;;;;;;24.35;14.20;;;;;;;21.38;71.31;99655.09;10453501;28;20052;-62
2023/10/27 07:00:46;;;;;;;32.80;12.77;;;;;;;21.50;70.08;99648.72;10453456;28;20503;-62
2023/10/27 07:05:47;;;;;;;23.23;12.15;;;;;;;21.88;69.43;99656.63;10453336;28;20049;-62
2023/10/27 07:10:53;;;;;;;28.30;12.68;;;;;;;22.11;67.77;99639.19;10453312;28;20472;-62
2023/10/27 07:15:54;;;;;;;24.35;12.05;;;;;;;21.78;66.67;99607.06;10452376;28;20124;-62
2023/10/27 07:20:56;;;;;;;19.98;11.10;;;;;;;21.95;66.23;99631.25;10451100;28;20044;-62
2023/10/27 07:25:56;;;;;;;21.13;11.90;;;;;;;22.00;66.84;99634.78;10452560;28;20045;-61
2023/10/27 07:30:57;;;;;;;30.38;13.48;;;;;;;21.87;67.17;99606.31;10450645;28;20052;-63
2023/10/27 07:35:58;;;;;;;37.35;13.20;;;;;;;21.93;67.35;99617.16;10453026;28;20073;-62
2023/10/27 07:40:59;;;;;;;23.17;13.68;;;;;;;21.88;66.99;99636.88;10452108;28;20088;-62
2023/10/27 07:46:01;;;;;;;34.97;16.30;;;;;;;21.81;66.51;99618.19;10452086;28;20037;-62
2023/10/27 07:51:03;;;;;;;26.88;13.63;;;;;;;21.88;66.26;99612.53;10451319;28;20044;-63
2023/10/27 07:56:04;;;;;;;36.47;16.52;;;;;;;21.86;66.29;99607.38;10451177;28;20041;-62
2023/10/27 08:01:05;;;;;;;43.60;21.23;;;;;;;21.41;66.30;99560.03;10452589;28;20089;-62
2023/10/27 08:06:07;;;;;;;39.78;18.50;;;;;;;21.40;66.11;99563.00;10450787;28;20048;-61
2023/10/27 08:11:14;;;;;;;51.47;17.08;;;;;;;21.55;67.17;99575.81;10450703;28;20052;-62
2023/10/27 08:16:15;;;;;;;38.17;14.40;;;;;;;21.81;66.18;99614.66;10450952;28;20127;-62
2023/10/27 08:21:16;;;;;;;29.92;14.70;;;;;;;21.50;65.44;99554.97;10451155;28;20185;-62
2023/10/27 08:26:17;;;;;;;35.03;17.15;;;;;;;21.79;65.04;99593.28;10450523;28;20052;-62
2023/10/27 08:31:17;;;;;;;47.75;26.58;;;;;;;21.78;64.92;99580.84;10450519;28;20511;-62
2023/10/27 08:36:19;;;;;;;52.97;25.80;;;;;;;21.91;65.06;99590.41;10450560;28;20072;-62
2023/10/27 08:41:20;;;;;;;41.72;18.88;;;;;;;21.78;64.06;99556.53;10449721;28;20040;-62
2023/10/27 08:46:22;;;;;;;54.45;21.77;;;;;;;22.13;64.32;99602.94;10448589;28;20045;-62
2023/10/27 08:51:23;;;;;;;49.20;26.45;;;;;;;22.20;64.11;99603.59;10449361;28;20076;-62
2023/10/27 08:56:25;;;;;;;73.15;36.95;;;;;;;22.03;63.79;99560.44;10449091;28;20115;-62
2023/10/27 09:01:26;;;;;;;40.53;20.67;;;;;;;22.16;63.66;99572.66;10449719;28;20171;-63
2023/10/27 09:06:27;;;;;;;49.13;22.77;;;;;;;22.28;63.88;99595.75;10449076;28;20045;-61
2023/10/27 09:11:27;;;;;;;48.65;17.52;;;;;;;22.43;63.68;99586.06;10449186;28;20089;-62
2023/10/27 09:16:28;;;;;;;38.95;15.30;;;;;;;22.41;63.39;99559.28;10449027;28;20075;-62
2023/10/27 09:21:32;;;;;;;22.08;12.50;;;;;;;22.34;63.35;99526.25;10449028;28;20045;-63
2023/10/27 09:26:48;;;;;;;28.85;12.20;;;;;;;22.99;61.53;99578.97;10449596;28;20515;-62
2023/10/27 09:31:53;;;;;;;24.83;12.50;;;;;;;22.90;61.54;99526.38;10448458;28;20123;-62
2023/10/27 09:36:57;;;;;;;24.55;10.48;;;;;;;23.28;59.30;99556.78;10449171;28;20065;-62
2023/10/27 09:42:03;;;;;;;22.42;9.82;;;;;;;23.57;57.49;99586.88;10448484;28;20500;-62
2023/10/27 09:47:14;;;;;;;19.08;10.40;;;;;;;23.29;57.71;99539.44;10447809;28;20041;-62
2023/10/27 09:52:20;;;;;;;22.50;9.68;;;;;;;23.63;56.22;99591.19;10448193;28;20069;-60
2023/10/27 09:57:21;;;;;;;21.15;8.10;;;;;;;23.65;56.96;99588.19;10454503;28;20104;-60
2023/10/27 10:02:24;;;;;;;29.13;9.65;;;;;;;23.41;56.78;99566.25;10455707;28;20137;-61
2023/10/27 10:07:44;;;;;;;18.58;8.23;;;;;;;23.35;56.07;99575.47;10455102;28;20037;-60
2023/10/27 10:13:12;;;;;;;22.92;8.18;;;;;;;23.27;56.78;99594.97;10455532;28;20128;-62
2023/10/27 10:18:22;;;;;;;30.30;8.40;;;;;;;22.83;56.60;99547.50;10454927;28;20504;-63
2023/10/27 10:23:40;;;;;;;17.35;7.38;;;;;;;23.09;56.13;99616.09;10455024;28;20451;-62
2023/10/27 10:28:41;;;;;;;26.92;7.47;;;;;;;23.14;56.80;99607.97;10454944;28;20066;-61
2023/10/27 10:33:44;;;;;;;19.55;6.60;;;;;;;23.14;55.83;99618.81;10454172;28;20039;-61
2023/10/27 10:39:03;;;;;;;;;;;;;;;23.28;55.22;99624.53;10454061;28;20517;-61
2023/10/27 10:44:12;;;;;;;17.77;6.10;;;;;;;22.97;54.12;99618.22;10454104;28;19917;-61
2023/10/27 10:49:24;;;;;;;26.65;7.05;;;;;;;22.94;53.78;99627.69;10453910;28;20033;-61
2023/10/27 10:54:32;;;;;;;21.25;5.82;;;;;;;23.00;53.62;99636.66;10453485;28;20041;-61
2023/10/27 10:59:33;;;;;;;22.48;8.48;;;;;;;23.01;54.37;99641.00;10447375;28;20041;-61
2023/10/27 11:04:34;;;;;;;29.77;10.57;;;;;;;23.07;53.21;99637.22;10451525;28;20045;-60
2023/10/27 11:09:35;;;;;;;18.63;5.22;;;;;;;23.22;52.79;99637.25;10453345;28;20043;-61
2023/10/27 11:14:40;;;;;;;12.90;4.65;;;;;;;22.88;51.82;99587.31;10452217;28;20053;-60
2023/10/27 11:19:53;;;;;;;15.50;5.00;;;;;;;23.26;50.69;99663.81;10452419;28;20037;-60
2023/10/27 11:24:54;;;;;;;17.98;5.43;;;;;;;23.20;52.13;99682.75;10451002;28;20094;-60
2023/10/27 11:29:57;;;;;;;15.32;4.82;;;;;;;23.04;52.13;99689.22;10450199;28;20041;-61
2023/10/27 11:34:58;;;;;;;14.53;5.27;;;;;;;22.89;53.31;99689.16;10452588;28;20115;-60
2023/10/27 11:40:12;;;;;;;11.82;5.25;;;;;;;22.93;53.83;99717.31;10444970;28;20041;-61
2023/10/27 11:45:15;;;;;;;18.10;4.57;;;;;;;22.84;54.70;99716.19;10429315;28;20043;-61
2023/10/27 11:50:15;;;;;;;19.23;4.90;;;;;;;22.76;55.88;99726.47;10429392;28;20041;-61
2023/10/27 11:55:17;;;;;;;17.52;4.50;;;;;;;22.43;56.07;99673.50;10434723;28;20041;-61
2023/10/27 12:00:18;;;;;;;21.23;3.85;;;;;;;22.66;56.79;99704.75;10429949;28;20388;-62
2023/10/27 12:05:19;;;;;;;18.83;4.38;;;;;;;22.18;57.29;99644.41;10431262;28;20052;-61
2023/10/27 12:10:19;;;;;;;28.58;4.93;;;;;;;22.38;57.77;99683.50;10447502;28;20048;-61
2023/10/27 12:15:20;;;;;;;22.30;4.28;;;;;;;22.30;58.26;99682.09;10430940;28;20041;-61
2023/10/27 12:20:21;;;;;;;27.27;5.32;;;;;;;22.06;58.73;99662.69;10432449;28;20090;-63
2023/10/27 12:25:22;;;;;;;26.15;6.80;;;;;;;21.98;59.31;99677.50;10426431;28;20082;-61
2023/10/27 12:30:23;;;;;;;24.33;6.55;;;;;;;21.81;59.51;99680.38;10450155;28;20052;-61
2023/10/27 12:35:27;;;;;;;20.58;4.93;;;;;;;21.75;60.11;99688.69;10450109;28;20564;-62
2023/10/27 12:40:28;;;;;;;15.60;5.25;;;;;;;21.72;60.42;99690.03;10449861;28;20040;-62
2023/10/27 12:45:29;;;;;;;26.52;7.40;;;;;;;21.61;60.83;99683.69;10447921;28;20049;-61
2023/10/27 12:50:30;;;;;;;25.23;5.72;;;;;;;21.56;61.03;99701.75;10444545;28;20049;-62
2023/10/27 12:55:31;;;;;;;18.98;5.22;;;;;;;21.48;61.46;99707.63;10448647;28;20034;-62
2023/10/27 13:00:34;;;;;;;22.02;4.53;;;;;;;21.36;61.79;99695.09;10423669;28;20044;-62
2023/10/27 13:05:39;;;;;;;16.38;6.15;;;;;;;21.32;62.29;99712.84;10441987;28;20048;-62
2023/10/27 13:10:40;;;;;;;26.55;7.93;;;;;;;21.24;62.41;99702.50;10423097;28;20505;-61
2023/10/27 13:15:41;;;;;;;27.73;8.55;;;;;;;21.18;62.57;99712.44;10415915;28;20045;-62
2023/10/27 13:20:41;;;;;;;33.90;11.40;;;;;;;21.08;63.15;99698.00;10439073;28;20474;-61
2023/10/27 13:25:44;;;;;;;40.65;11.27;;;;;;;21.02;63.53;99715.19;10443074;28;20055;-62
2023/10/27 13:30:47;;;;;;;29.27;9.17;;;;;;;20.93;63.88;99723.72;10446254;28;20109;-61
2023/10/27 13:35:48;;;;;;;31.58;8.57;;;;;;;20.82;64.49;99723.84;10425923;28;20056;-62
2023/10/27 13:40:49;;;;;;;51.10;9.20;;;;;;;20.71;64.92;99729.13;10434539;28;20780;-63
2023/10/27 13:45:57;;;;;;;32.75;8.75;;;;;;;20.59;65.72;99741.09;10436166;28;20049;-63
2023/10/27 13:51:06;;;;;;;76.35;11.27;;;;;;;20.50;66.94;99738.78;10443290;28;20053;-62
2023/10/27 13:56:12;;;;;;;33.13;9.20;;;;;;;20.03;66.49;99685.22;10446802;28;20041;-61
2023/10/27 14:01:14;;;;;;;179.88;16.65;;;;;;;20.22;67.60;99741.59;10446210;28;20037;-61
2023/10/27 14:06:16;;;;;;;250.35;106.80;;;;;;;20.01;68.18;99744.00;10447645;28;20056;-61
2023/10/27 14:11:17;;;;;;;342.95;102.53;;;;;;;19.81;69.75;99743.66;10445562;28;20093;-62
2023/10/27 14:16:19;;;;;;;498.45;213.07;;;;;;;19.66;70.21;99744.19;10445375;28;20045;-60
2023/10/27 14:21:19;;;;;;;249.75;89.72;;;;;;;19.19;71.08;99701.25;10448269;28;20040;-61
2023/10/27 14:26:21;;;;;;;218.13;70.65;;;;;;;19.12;73.02;99741.78;10448283;28;20045;-60
2023/10/27 14:31:22;;;;;;;189.75;78.30;;;;;;;18.99;73.56;99747.44;10446424;28;20039;-60
2023/10/27 14:36:23;;;;;;;164.60;63.53;;;;;;;18.88;74.36;99756.38;10446630;28;20108;-60
2023/10/27 14:41:24;;;;;;;177.85;65.78;;;;;;;18.66;75.10;99750.75;10451218;28;20056;-61
2023/10/27 14:46:26;;;;;;;199.35;63.55;;;;;;;18.57;75.64;99752.97;10449861;28;20132;-60
2023/10/27 14:51:27;;;;;;;198.10;59.83;;;;;;;18.22;76.90;99750.28;10448811;28;20047;-61
2023/10/27 14:56:28;;;;;;;174.30;57.88;;;;;;;18.09;77.39;99756.69;10452193;28;20119;-61
2023/10/27 15:01:29;;;;;;;235.50;87.25;;;;;;;17.95;77.82;99747.22;10452754;28;20483;-59
2023/10/27 15:06:30;;;;;;;244.13;92.82;;;;;;;17.79;78.64;99757.56;10453675;28;20086;-62
2023/10/27 15:11:30;;;;;;;197.30;80.03;;;;;;;17.57;79.54;99748.34;10452786;28;20045;-62
2023/10/27 15:16:35;;;;;;;180.57;72.30;;;;;;;17.58;79.90;99772.28;10447937;28;20047;-61
2023/10/27 15:21:38;;;;;;;232.95;95.60;;;;;;;17.38;80.46;99779.81;10422054;28;20055;-64
2023/10/27 15:26:39;;;;;;;200.27;82.20;;;;;;;16.81;81.31;99731.78;10427748;28;20064;-63
2023/10/27 15:31:40;;;;;;;160.90;64.13;;;;;;;16.86;81.49;99774.00;10431440;28;20029;-62
2023/10/27 15:36:41;;;;;;;180.82;77.80;;;;;;;16.76;82.56;99785.25;10434941;28;20088;-62
2023/10/27 15:41:46;;;;;;;168.85;66.43;;;;;;;16.60;82.61;99781.25;10437583;28;20123;-61
2023/10/27 15:46:47;;;;;;;154.93;65.95;;;;;;;16.12;83.19;99762.28;10433025;28;20041;-62
2023/10/27 15:51:48;;;;;;;143.88;59.80;;;;;;;16.09;83.59;99763.53;10436040;28;20041;-63
2023/10/27 15:56:49;;;;;;;124.40;47.35;;;;;;;15.75;83.99;99719.31;10434760;28;20039;-61
2023/10/27 16:01:50;;;;;;;130.50;53.00;;;;;;;15.95;84.41;99776.22;10440633;28;20037;-61
2023/10/27 16:06:57;;;;;;;147.32;55.03;;;;;;;15.84;84.93;99770.75;10447238;28;20058;-61
2023/10/27 16:11:58;;;;;;;169.13;77.40;;;;;;;15.73;85.03;99758.84;10435450;28;20041;-61
2023/10/27 16:16:59;;;;;;;205.23;70.15;;;;;;;15.72;85.13;99763.41;10418791;28;20068;-62
2023/10/27 16:22:00;;;;;;;151.88;60.33;;;;;;;15.61;85.10;99753.34;10407800;28;20591;-61
2023/10/27 16:27:01;;;;;;;139.55;56.47;;;;;;;15.53;85.67;99742.91;10412129;28;20071;-62
2023/10/27 16:32:03;;;;;;;86.88;35.30;;;;;;;15.71;85.37;99748.38;10449782;28;20477;-62
2023/10/27 16:37:04;;;;;;;71.82;28.45;;;;;;;15.77;85.26;99744.03;10429048;28;20061;-62
2023/10/27 16:42:07;;;;;;;55.50;20.73;;;;;;;15.90;85.08;99733.19;10409250;28;20086;-62
2023/10/27 16:47:08;;;;;;;40.80;15.52;;;;;;;16.07;84.58;99749.56;10428602;28;20086;-62
2023/10/27 16:52:08;;;;;;;40.80;17.83;;;;;;;16.10;84.47;99740.28;10444022;28;20556;-62
2023/10/27 16:57:11;;;;;;;43.58;17.05;;;;;;;16.11;84.66;99744.59;10433638;28;20053;-61
2023/10/27 17:02:12;;;;;;;41.10;15.77;;;;;;;15.82;85.30;99697.81;10406091;28;20131;-62
2023/10/27 17:07:15;;;;;;;30.50;13.32;;;;;;;16.08;85.67;99753.06;10428531;28;20056;-62
2023/10/27 17:12:17;;;;;;;74.85;30.05;;;;;;;15.98;85.49;99729.44;10446099;28;20033;-62
2023/10/27 17:17:18;;;;;;;76.50;29.10;;;;;;;16.01;85.89;99747.75;10447684;28;20045;-62
2023/10/27 17:22:19;;;;;;;59.22;23.30;;;;;;;16.07;86.07;99764.81;10437401;28;20041;-62
2023/10/27 17:27:21;;;;;;;50.90;18.75;;;;;;;15.25;86.26;99695.06;10432705;28;20075;-61
2023/10/27 17:32:22;;;;;;;110.95;52.45;;;;;;;15.34;87.28;99783.97;10437242;28;20041;-62
2023/10/27 17:37:23;;;;;;;71.78;34.65;;;;;;;15.30;87.79;99783.56;10425297;28;20065;-63
2023/10/27 17:42:26;;;;;;;74.80;36.45;;;;;;;15.24;87.81;99781.75;10423641;28;20056;-64
2023/10/27 17:47:27;;;;;;;85.70;36.00;;;;;;;15.11;87.77;99769.25;10436032;28;20554;-61
2023/10/27 17:52:28;;;;;;;80.07;33.67;;;;;;;15.20;87.86;99788.56;10428255;28;20089;-62
2023/10/27 17:57:29;;;;;;;61.75;25.67;;;;;;;15.04;88.50;99805.88;10427452;28;20044;-61
2023/10/27 18:02:31;;;;;;;76.97;25.67;;;;;;;14.97;88.63;99813.13;10408465;28;20123;-60
2023/10/27 18:07:32;;;;;;;51.28;20.30;;;;;;;14.87;88.88;99802.84;10420665;28;20049;-62
2023/10/27 18:12:36;;;;;;;37.83;16.75;;;;;;;14.70;89.38;99797.13;10419524;28;20098;-62
2023/10/27 18:17:37;;;;;;;44.80;16.27;;;;;;;14.14;89.83;99733.41;10436524;28;20049;-62
2023/10/27 18:22:38;;;;;;;37.70;18.17;;;;;;;14.03;90.15;99732.19;10440143;28;20053;-61
2023/10/27 18:27:42;;;;;;;53.75;22.90;;;;;;;14.21;90.51;99806.38;10434722;28;20128;-61
2023/10/27 18:32:43;;;;;;;65.97;30.58;;;;;;;13.92;90.96;99791.53;10426263;28;20037;-61
2023/10/27 18:37:44;;;;;;;58.72;25.17;;;;;;;13.84;91.32;99805.06;10412141;28;20152;-61
2023/10/27 18:42:47;;;;;;;55.95;22.10;;;;;;;13.73;91.74;99805.66;10411823;28;20087;-61
2023/10/27 18:47:49;;;;;;;41.83;16.80;;;;;;;13.64;92.19;99808.53;10412225;28;20097;-61
2023/10/27 18:52:50;;;;;;;54.25;28.33;;;;;;;13.62;93.13;99812.41;10438940;28;20453;-62
2023/10/27 18:57:52;;;;;;;54.88;27.40;;;;;;;13.63;93.39;99817.53;10446165;28;20128;-60
2023/10/27 19:02:52;;;;;;;82.50;36.53;;;;;;;13.62;92.98;99815.91;10414625;28;20042;-60
2023/10/27 19:07:54;;;;;;;59.67;28.58;;;;;;;13.41;93.17;99826.72;10419550;28;20052;-61
2023/10/27 19:12:55;;;;;;;75.78;29.95;;;;;;;12.91;93.84;99764.69;10411794;28;20038;-61
2023/10/27 19:17:56;;;;;;;65.47;31.63;;;;;;;13.06;93.85;99804.56;10410654;28;20124;-61
2023/10/27 19:22:57;;;;;;;62.65;25.40;;;;;;;13.01;94.34;99819.31;10437846;28;20097;-61
2023/10/27 19:27:58;;;;;;;52.33;23.98;;;;;;;12.72;95.03;99780.38;10449159;28;20169;-61
2023/10/27 19:32:59;;;;;;;78.05;31.70;;;;;;;12.66;94.45;99775.03;10422107;28;20038;-61
2023/10/27 19:37:59;;;;;;;64.50;22.58;;;;;;;12.81;95.00;99801.56;10442488;28;20053;-61
2023/10/27 19:43:01;;;;;;;67.47;30.35;;;;;;;12.76;94.71;99818.94;10452083;28;20553;-61
2023/10/27 19:48:04;;;;;;;68.18;31.48;;;;;;;12.73;94.81;99808.66;10422098;28;20050;-62
2023/10/27 19:53:05;;;;;;;70.57;32.35;;;;;;;12.86;95.66;99820.44;10426118;28;20040;-62
2023/10/27 19:58:06;;;;;;;60.65;28.25;;;;;;;12.55;95.37;99779.84;10410789;28;20049;-63
2023/10/27 20:03:07;;;;;;;62.25;28.95;;;;;;;12.32;95.26;99752.63;10409979;28;20042;-62
2023/10/27 20:08:10;;;;;;;72.28;27.00;;;;;;;12.69;95.95;99807.44;10419143;28;20041;-62
2023/10/27 20:13:10;;;;;;;119.20;29.67;;;;;;;12.47;95.64;99764.00;10415983;28;20056;-62
2023/10/27 20:18:11;;;;;;;63.40;33.85;;;;;;;12.69;95.47;99798.63;10409919;28;20086;-62
2023/10/27 20:23:12;;;;;;;81.75;29.98;;;;;;;12.68;95.43;99788.94;10409337;28;20034;-62
2023/10/27 20:28:13;;;;;;;63.63;29.65;;;;;;;12.31;95.90;99722.53;10407885;28;20045;-61
2023/10/27 20:33:14;;;;;;;71.60;28.75;;;;;;;12.64;95.86;99780.53;10409451;28;20124;-62
2023/10/27 20:38:15;;;;;;;87.90;31.30;;;;;;;12.45;95.88;99759.91;10409511;28;20136;-62
2023/10/27 20:43:16;;;;;;;72.70;34.58;;;;;;;12.39;95.51;99771.34;10409094;28;20102;-61
2023/10/27 20:48:17;;;;;;;87.78;36.25;;;;;;;12.46;96.21;99775.69;10420239;28;20078;-61
2023/10/27 20:53:19;;;;;;;80.00;36.17;;;;;;;12.36;96.11;99775.22;10441141;28;20058;-62
2023/10/27 20:58:20;;;;;;;90.57;39.05;;;;;;;12.44;96.32;99774.25;10444043;28;20045;-62
2023/10/27 21:03:21;;;;;;;98.85;39.80;;;;;;;12.48;96.26;99792.31;10449729;28;20114;-62
2023/10/27 21:08:22;;;;;;;73.53;34.35;;;;;;;12.37;96.03;99781.38;10449652;28;20397;-61
2023/10/27 21:13:23;;;;;;;95.80;39.17;;;;;;;12.20;97.10;99781.63;10449847;28;20497;-61
2023/10/27 21:18:23;;;;;;;112.97;44.35;;;;;;;12.16;97.32;99775.06;10442649;28;20045;-62
2023/10/27 21:23:24;;;;;;;123.72;45.10;;;;;;;12.13;97.05;99777.28;10406971;28;20038;-63
2023/10/27 21:28:25;;;;;;;108.22;42.90;;;;;;;12.10;97.24;99771.31;10405976;28;20086;-62
2023/10/27 21:33:26;;;;;;;96.65;36.08;;;;;;;11.81;97.22;99755.44;10425242;28;20128;-61
2023/10/27 21:38:28;;;;;;;77.32;32.08;;;;;;;11.62;98.13;99701.88;10435739;28;20040;-62
2023/10/27 21:43:29;;;;;;;82.53;33.45;;;;;;;11.96;98.07;99756.22;10448347;28;20053;-62
2023/10/27 21:48:30;;;;;;;70.47;26.73;;;;;;;11.86;97.96;99766.41;10407206;28;20435;-62
2023/10/27 21:53:32;;;;;;;60.40;24.05;;;;;;;11.70;98.52;99754.16;10405859;28;20394;-61
2023/10/27 21:58:35;;;;;;;78.07;27.13;;;;;;;11.55;98.64;99748.06;10406853;28;20584;-61
2023/10/27 22:03:37;;;;;;;61.88;24.67;;;;;;;11.65;98.16;99767.19;10405564;28;20088;-62
2023/10/27 22:08:41;;;;;;;58.83;22.70;;;;;;;11.50;98.26;99755.78;10406722;28;20044;-62
2023/10/27 22:13:44;;;;;;;57.70;23.20;;;;;;;11.16;98.10;99720.84;10407115;28;20041;-61
2023/10/27 22:18:44;;;;;;;48.72;19.40;;;;;;;11.36;98.13;99754.78;10406398;28;20037;-61
2023/10/27 22:23:45;;;;;;;51.40;18.55;;;;;;;10.98;98.13;99701.81;10405611;28;20033;-61
2023/10/27 22:28:46;;;;;;;62.83;17.73;;;;;;;11.28;98.06;99753.06;10421710;28;20056;-61
2023/10/27 22:33:47;;;;;;;37.58;15.35;;;;;;;11.15;98.51;99752.91;10405885;28;20174;-62
2023/10/27 22:38:48;;;;;;;53.35;17.13;;;;;;;11.01;98.12;99743.13;10405468;28;20189;-61
2023/10/27 22:43:51;;;;;;;51.78;19.15;;;;;;;11.08;98.58;99747.50;10406287;28;20377;-62
2023/10/27 22:48:52;;;;;;;66.60;20.15;;;;;;;11.06;98.33;99743.38;10406050;28;20048;-61